createdAt,value
2017-12-27T00:00:13.968Z,989.47
2017-12-27T00:01:13.955Z,989.48
2017-12-27T00:02:13.942Z,989.36
2017-12-27T00:03:13.930Z,989.42
2017-12-27T00:04:13.918Z,989.39
2017-12-27T00:05:13.905Z,989.33
2017-12-27T00:06:13.894Z,989.31
2017-12-27T00:07:13.887Z,989.31
2017-12-27T00:08:13.873Z,989.24
2017-12-27T00:09:13.859Z,989.14
2017-12-27T00:10:13.849Z,989.04
2017-12-27T00:11:13.835Z,989.03
2017-12-27T00:12:13.823Z,988.98
2017-12-27T00:13:13.811Z,988.88
2017-12-27T00:14:13.798Z,988.93
2017-12-27T00:15:13.782Z,988.89
2017-12-27T00:16:13.770Z,988.82
2017-12-27T00:17:13.758Z,988.79
2017-12-27T00:18:13.745Z,988.79
2017-12-27T00:19:13.737Z,988.83
2017-12-27T00:20:13.725Z,988.66
2017-12-27T00:21:13.713Z,988.66
2017-12-27T00:22:13.701Z,988.58
2017-12-27T00:23:13.684Z,988.60
2017-12-27T00:24:13.674Z,988.53
2017-12-27T00:25:13.659Z,988.44
2017-12-27T00:26:13.648Z,988.38
2017-12-27T00:27:13.634Z,988.36
2017-12-27T00:28:13.624Z,988.33
2017-12-27T00:29:13.610Z,988.31
2017-12-27T00:30:13.599Z,988.25
2017-12-27T00:31:13.591Z,988.33
2017-12-27T00:32:13.578Z,988.29
2017-12-27T00:33:13.568Z,988.35
2017-12-27T00:34:13.555Z,988.26
2017-12-27T00:35:13.543Z,988.29
2017-12-27T00:36:13.531Z,988.19
2017-12-27T00:37:13.518Z,988.15
2017-12-27T00:38:13.506Z,988.18
2017-12-27T00:39:13.490Z,988.12
2017-12-27T00:40:13.478Z,988.11
2017-12-27T00:41:13.465Z,988.16
2017-12-27T00:42:13.457Z,988.10
2017-12-27T00:43:13.442Z,988.04
2017-12-27T00:44:13.430Z,988.04
2017-12-27T00:45:13.416Z,988.00
2017-12-27T00:46:13.406Z,988.00
2017-12-27T00:47:13.396Z,988.00
2017-12-27T00:48:13.386Z,987.96
2017-12-27T00:49:13.374Z,987.93
2017-12-27T00:50:13.361Z,987.91
2017-12-27T00:51:13.353Z,987.84
2017-12-27T00:52:13.336Z,987.85
2017-12-27T00:53:13.325Z,987.87
2017-12-27T00:54:13.359Z,987.81
2017-12-27T00:55:13.299Z,987.76
2017-12-27T00:56:13.284Z,987.74
2017-12-27T00:57:13.271Z,987.66
2017-12-27T00:58:13.259Z,987.70
2017-12-27T00:59:13.247Z,987.64
2017-12-27T01:00:13.236Z,987.69
2017-12-27T01:01:13.224Z,987.66
2017-12-27T01:02:13.211Z,987.51
2017-12-27T01:03:13.202Z,987.55
2017-12-27T01:04:13.191Z,987.45
2017-12-27T01:05:13.179Z,987.36
2017-12-27T01:06:13.167Z,987.39
2017-12-27T01:07:13.154Z,987.33
2017-12-27T01:08:13.144Z,987.24
2017-12-27T01:09:13.131Z,987.25
2017-12-27T01:10:13.119Z,987.19
2017-12-27T01:11:13.101Z,987.09
2017-12-27T01:12:13.090Z,987.07
2017-12-27T01:13:13.078Z,987.08
2017-12-27T01:14:13.067Z,987.08
2017-12-27T01:15:13.053Z,986.97
2017-12-27T01:16:13.042Z,987.11
2017-12-27T01:17:13.029Z,987.02
2017-12-27T01:18:13.018Z,986.96
2017-12-27T01:19:13.008Z,986.82
2017-12-27T01:20:12.997Z,986.89
2017-12-27T01:21:12.985Z,986.89
2017-12-27T01:22:12.972Z,986.85
2017-12-27T01:23:12.956Z,986.89
2017-12-27T01:24:12.945Z,986.90
2017-12-27T01:25:12.932Z,986.88
2017-12-27T01:26:12.920Z,986.82
2017-12-27T01:27:12.913Z,986.74
2017-12-27T01:28:12.901Z,986.74
2017-12-27T01:29:12.888Z,986.76
2017-12-27T01:30:12.876Z,986.75
2017-12-27T01:31:12.864Z,986.74
2017-12-27T01:32:12.851Z,986.75
2017-12-27T01:33:12.842Z,986.70
2017-12-27T01:34:12.830Z,986.76
2017-12-27T01:35:12.814Z,986.62
2017-12-27T01:36:12.798Z,986.68
2017-12-27T01:37:12.788Z,986.61
2017-12-27T01:38:12.775Z,986.60
2017-12-27T01:39:12.761Z,986.62
2017-12-27T01:40:12.752Z,986.58
2017-12-27T01:41:12.739Z,986.63
2017-12-27T01:42:12.727Z,986.61
2017-12-27T01:43:12.718Z,986.50
2017-12-27T01:44:12.707Z,986.52
2017-12-27T01:45:12.694Z,986.58
2017-12-27T01:46:12.683Z,986.62
2017-12-27T01:47:12.669Z,986.47
2017-12-27T01:48:12.659Z,986.46
2017-12-27T01:49:12.647Z,986.40
2017-12-27T01:50:12.634Z,986.36
2017-12-27T01:51:12.618Z,986.42
2017-12-27T01:52:12.606Z,986.35
2017-12-27T01:53:12.594Z,986.37
2017-12-27T01:54:12.581Z,986.38
2017-12-27T01:55:12.569Z,986.33
2017-12-27T01:56:12.557Z,986.21
2017-12-27T01:57:12.546Z,986.24
2017-12-27T01:58:12.534Z,986.24
2017-12-27T01:59:12.524Z,986.25
2017-12-27T02:00:12.513Z,986.13
2017-12-27T02:01:12.502Z,986.18
2017-12-27T02:02:12.490Z,985.95
2017-12-27T02:03:12.477Z,986.04
2017-12-27T02:04:12.465Z,986.03
2017-12-27T02:05:12.453Z,986.02
2017-12-27T02:06:12.440Z,985.93
2017-12-27T02:07:12.424Z,985.90
2017-12-27T02:08:12.412Z,985.91
2017-12-27T02:09:12.401Z,985.90
2017-12-27T02:10:12.389Z,985.88
2017-12-27T02:11:12.376Z,985.92
2017-12-27T02:12:12.363Z,985.85
2017-12-27T02:13:12.352Z,985.86
2017-12-27T02:14:12.341Z,985.81
2017-12-27T02:15:12.331Z,985.75
2017-12-27T02:16:12.320Z,985.80
2017-12-27T02:17:12.308Z,985.75
2017-12-27T02:18:12.302Z,985.71
2017-12-27T02:19:12.284Z,985.63
2017-12-27T02:20:12.272Z,985.70
2017-12-27T02:21:12.260Z,985.68
2017-12-27T02:22:12.248Z,985.62
2017-12-27T02:23:12.231Z,985.56
2017-12-27T02:24:12.221Z,985.54
2017-12-27T02:25:12.208Z,985.58
2017-12-27T02:26:12.195Z,985.51
2017-12-27T02:27:12.183Z,985.41
2017-12-27T02:28:12.171Z,985.38
2017-12-27T02:29:12.158Z,985.32
2017-12-27T02:30:12.147Z,985.25
2017-12-27T02:31:12.138Z,985.30
2017-12-27T02:32:12.128Z,985.22
2017-12-27T02:33:12.116Z,985.28
2017-12-27T02:34:12.103Z,985.15
2017-12-27T02:35:12.091Z,985.12
2017-12-27T02:36:12.079Z,985.10
2017-12-27T02:37:12.068Z,984.98
2017-12-27T02:38:12.055Z,984.97
2017-12-27T02:39:12.042Z,984.92
2017-12-27T02:40:12.027Z,984.97
2017-12-27T02:41:12.015Z,985.04
2017-12-27T02:42:12.003Z,984.93
2017-12-27T02:43:11.990Z,984.86
2017-12-27T02:44:11.978Z,984.82
2017-12-27T02:45:11.967Z,984.79
2017-12-27T02:46:11.955Z,984.75
2017-12-27T02:47:11.946Z,984.78
2017-12-27T02:48:11.940Z,984.73
2017-12-27T02:49:11.923Z,984.68
2017-12-27T02:50:11.912Z,984.57
2017-12-27T02:51:11.897Z,984.58
2017-12-27T02:52:11.885Z,984.58
2017-12-27T02:53:11.874Z,984.66
2017-12-27T02:54:11.863Z,984.64
2017-12-27T02:55:11.845Z,984.56
2017-12-27T02:56:11.836Z,984.62
2017-12-27T02:57:11.828Z,984.55
2017-12-27T02:58:11.809Z,984.45
2017-12-27T02:59:11.797Z,984.53
2017-12-27T03:00:11.785Z,984.48
2017-12-27T03:01:11.772Z,984.40
2017-12-27T03:02:11.762Z,984.38
2017-12-27T03:03:11.752Z,984.32
2017-12-27T03:04:11.741Z,984.30
2017-12-27T03:05:11.730Z,984.26
2017-12-27T03:06:11.719Z,984.18
2017-12-27T03:07:11.705Z,984.17
2017-12-27T03:08:11.694Z,984.15
2017-12-27T03:09:11.681Z,984.28
2017-12-27T03:10:11.670Z,984.29
2017-12-27T03:11:11.656Z,984.26
2017-12-27T03:12:11.645Z,984.20
2017-12-27T03:13:11.629Z,984.25
2017-12-27T03:14:11.617Z,984.12
2017-12-27T03:15:11.603Z,984.10
2017-12-27T03:16:11.593Z,984.01
2017-12-27T03:17:11.580Z,983.97
2017-12-27T03:18:11.568Z,983.96
2017-12-27T03:19:11.562Z,983.97
2017-12-27T03:20:11.548Z,983.96
2017-12-27T03:21:11.535Z,983.82
2017-12-27T03:22:11.524Z,983.76
2017-12-27T03:23:11.512Z,983.80
2017-12-27T03:24:11.499Z,983.74
2017-12-27T03:25:11.488Z,983.57
2017-12-27T03:26:11.478Z,983.61
2017-12-27T03:27:11.459Z,983.59
2017-12-27T03:28:11.448Z,983.57
2017-12-27T03:29:11.435Z,983.55
2017-12-27T03:30:11.424Z,983.56
2017-12-27T03:31:11.416Z,983.51
2017-12-27T03:32:11.403Z,983.41
2017-12-27T03:33:11.391Z,983.52
2017-12-27T03:34:11.380Z,983.36
2017-12-27T03:35:11.363Z,983.43
2017-12-27T03:36:11.351Z,983.31
2017-12-27T03:37:11.338Z,983.35
2017-12-27T03:38:11.327Z,983.35
2017-12-27T03:39:11.313Z,983.30
2017-12-27T03:40:11.302Z,983.23
2017-12-27T03:41:11.290Z,983.08
2017-12-27T03:42:11.278Z,983.02
2017-12-27T03:43:11.269Z,983.02
2017-12-27T03:44:11.258Z,983.07
2017-12-27T03:45:11.245Z,983.22
2017-12-27T03:46:11.234Z,983.04
2017-12-27T03:47:11.222Z,982.95
2017-12-27T03:48:11.210Z,982.92
2017-12-27T03:49:11.198Z,982.82
2017-12-27T03:50:11.185Z,982.82
2017-12-27T03:51:11.169Z,982.86
2017-12-27T03:52:11.156Z,983.02
2017-12-27T03:53:11.145Z,982.86
2017-12-27T03:54:11.133Z,982.92
2017-12-27T03:55:11.120Z,982.89
2017-12-27T03:56:11.108Z,982.90
2017-12-27T03:57:11.095Z,982.78
2017-12-27T03:58:11.085Z,982.78
2017-12-27T03:59:11.076Z,982.92
2017-12-27T04:00:11.063Z,982.89
2017-12-27T04:01:11.052Z,982.75
2017-12-27T04:02:11.040Z,982.79
2017-12-27T04:03:11.026Z,982.76
2017-12-27T04:04:11.014Z,982.75
2017-12-27T04:05:11.003Z,982.73
2017-12-27T04:06:10.991Z,982.87
2017-12-27T04:07:10.974Z,982.69
2017-12-27T04:08:10.962Z,982.78
2017-12-27T04:09:10.949Z,982.65
2017-12-27T04:10:10.939Z,982.69
2017-12-27T04:11:10.925Z,982.63
2017-12-27T04:12:10.912Z,982.60
2017-12-27T04:13:10.901Z,982.59
2017-12-27T04:14:10.890Z,982.65
2017-12-27T04:15:10.881Z,982.53
2017-12-27T04:16:10.868Z,982.45
2017-12-27T04:17:10.860Z,982.45
2017-12-27T04:18:10.845Z,982.41
2017-12-27T04:19:10.832Z,982.35
2017-12-27T04:20:10.821Z,982.17
2017-12-27T04:21:10.809Z,982.25
2017-12-27T04:22:10.797Z,982.22
2017-12-27T04:23:10.780Z,982.21
2017-12-27T04:24:10.769Z,982.20
2017-12-27T04:25:10.757Z,982.24
2017-12-27T04:26:10.745Z,982.19
2017-12-27T04:27:10.732Z,982.17
2017-12-27T04:28:10.720Z,982.07
2017-12-27T04:29:10.708Z,982.05
2017-12-27T04:30:10.697Z,981.97
2017-12-27T04:31:10.686Z,982.00
2017-12-27T04:32:10.675Z,981.99
2017-12-27T04:33:10.664Z,981.99
2017-12-27T04:34:10.652Z,981.96
2017-12-27T04:35:10.635Z,982.05
2017-12-27T04:36:10.623Z,981.89
2017-12-27T04:37:10.613Z,981.91
2017-12-27T04:38:10.599Z,981.92
2017-12-27T04:39:10.591Z,981.87
2017-12-27T04:40:10.579Z,981.73
2017-12-27T04:41:10.568Z,981.84
2017-12-27T04:42:10.556Z,981.80
2017-12-27T04:43:10.543Z,981.77
2017-12-27T04:44:10.530Z,981.70
2017-12-27T04:45:10.519Z,981.69
2017-12-27T04:46:10.508Z,981.62
2017-12-27T04:47:10.491Z,981.67
2017-12-27T04:48:10.479Z,981.64
2017-12-27T04:49:10.468Z,981.65
2017-12-27T04:50:10.456Z,981.66
2017-12-27T04:51:10.442Z,981.63
2017-12-27T04:52:10.431Z,981.61
2017-12-27T04:53:10.418Z,981.55
2017-12-27T04:54:10.407Z,981.60
2017-12-27T04:55:10.399Z,981.63
2017-12-27T04:56:10.387Z,981.57
2017-12-27T04:57:10.374Z,981.55
2017-12-27T04:58:10.363Z,981.60
2017-12-27T04:59:10.351Z,981.49
2017-12-27T05:00:10.339Z,981.60
2017-12-27T05:01:10.327Z,981.50
2017-12-27T05:02:10.316Z,981.53
2017-12-27T05:03:10.299Z,981.43
2017-12-27T05:04:10.287Z,981.34
2017-12-27T05:05:10.275Z,981.40
2017-12-27T05:06:10.263Z,981.38
2017-12-27T05:07:10.251Z,981.42
2017-12-27T05:08:10.239Z,981.34
2017-12-27T05:09:10.226Z,981.27
2017-12-27T05:10:10.214Z,981.36
2017-12-27T05:11:10.207Z,981.31
2017-12-27T05:12:10.194Z,981.37
2017-12-27T05:13:10.182Z,981.25
2017-12-27T05:14:10.173Z,981.26
2017-12-27T05:15:10.158Z,981.19
2017-12-27T05:16:10.146Z,981.27
2017-12-27T05:17:10.135Z,981.21
2017-12-27T05:18:10.122Z,981.26
2017-12-27T05:19:10.106Z,981.21
2017-12-27T05:20:10.094Z,981.31
2017-12-27T05:21:10.081Z,981.27
2017-12-27T05:22:10.071Z,981.18
2017-12-27T05:23:10.057Z,981.16
2017-12-27T05:24:10.044Z,981.16
2017-12-27T05:25:10.033Z,981.18
2017-12-27T05:26:10.022Z,981.11
2017-12-27T05:27:10.012Z,981.12
2017-12-27T05:28:10.000Z,981.09
2017-12-27T05:29:09.988Z,981.19
2017-12-27T05:30:09.976Z,981.10
2017-12-27T05:31:09.963Z,981.08
2017-12-27T05:32:09.952Z,981.00
2017-12-27T05:33:09.939Z,981.06
2017-12-27T05:34:09.928Z,981.06
2017-12-27T05:35:09.911Z,981.10
2017-12-27T05:36:09.899Z,981.05
2017-12-27T05:37:09.887Z,981.03
2017-12-27T05:38:09.875Z,981.03
2017-12-27T05:39:09.865Z,980.99
2017-12-27T05:40:09.855Z,980.96
2017-12-27T05:41:09.843Z,980.96
2017-12-27T05:42:09.830Z,980.99
2017-12-27T05:43:09.815Z,981.02
2017-12-27T05:44:09.802Z,981.05
2017-12-27T05:45:09.790Z,980.98
2017-12-27T05:46:09.778Z,980.99
2017-12-27T05:47:09.765Z,981.01
2017-12-27T05:48:09.753Z,980.88
2017-12-27T05:49:09.740Z,980.93
2017-12-27T05:50:09.729Z,980.90
2017-12-27T05:51:09.720Z,980.95
2017-12-27T05:52:09.709Z,980.86
2017-12-27T05:53:09.697Z,980.90
2017-12-27T05:54:09.684Z,980.90
2017-12-27T05:55:09.672Z,980.89
2017-12-27T05:56:09.660Z,980.85
2017-12-27T05:57:09.649Z,980.89
2017-12-27T05:58:09.635Z,980.90
2017-12-27T05:59:09.619Z,980.87
2017-12-27T06:00:09.607Z,980.89
2017-12-27T06:01:09.597Z,980.77
2017-12-27T06:02:09.584Z,980.82
2017-12-27T06:03:09.571Z,980.84
2017-12-27T06:04:09.558Z,980.82
2017-12-27T06:05:09.547Z,980.80
2017-12-27T06:06:09.535Z,980.92
2017-12-27T06:07:09.526Z,980.76
2017-12-27T06:08:09.515Z,980.70
2017-12-27T06:09:09.530Z,980.82
2017-12-27T06:10:09.491Z,980.80
2017-12-27T06:11:09.477Z,980.67
2017-12-27T06:12:09.471Z,980.76
2017-12-27T06:13:09.458Z,980.67
2017-12-27T06:14:09.443Z,980.68
2017-12-27T06:15:09.425Z,980.69
2017-12-27T06:16:09.414Z,980.72
2017-12-27T06:17:09.402Z,980.64
2017-12-27T06:18:09.388Z,980.68
2017-12-27T06:19:09.376Z,980.68
2017-12-27T06:20:09.365Z,980.57
2017-12-27T06:21:09.352Z,980.69
2017-12-27T06:22:09.341Z,980.75
2017-12-27T06:23:09.332Z,980.65
2017-12-27T06:24:09.319Z,980.72
2017-12-27T06:25:09.308Z,980.63
2017-12-27T06:26:09.296Z,980.68
2017-12-27T06:27:09.284Z,980.62
2017-12-27T06:28:09.271Z,980.61
2017-12-27T06:29:09.259Z,980.64
2017-12-27T06:30:09.246Z,980.63
2017-12-27T06:31:09.230Z,980.57
2017-12-27T06:32:09.220Z,980.61
2017-12-27T06:33:09.208Z,980.63
2017-12-27T06:34:09.195Z,980.63
2017-12-27T06:35:09.181Z,980.59
2017-12-27T06:36:09.167Z,980.54
2017-12-27T06:37:09.155Z,980.56
2017-12-27T06:38:09.143Z,980.54
2017-12-27T06:39:09.135Z,980.54
2017-12-27T06:40:09.122Z,980.57
2017-12-27T06:41:09.110Z,980.51
2017-12-27T06:42:09.098Z,980.52
2017-12-27T06:43:09.079Z,980.48
2017-12-27T06:44:09.068Z,980.49
2017-12-27T06:45:09.054Z,980.52
2017-12-27T06:46:09.042Z,980.45
2017-12-27T06:47:09.035Z,980.44
2017-12-27T06:48:09.023Z,980.42
2017-12-27T06:49:09.008Z,980.47
2017-12-27T06:50:08.997Z,980.40
2017-12-27T06:51:08.984Z,980.38
2017-12-27T06:52:08.970Z,980.29
2017-12-27T06:53:08.958Z,980.36
2017-12-27T06:54:08.946Z,980.31
2017-12-27T06:55:08.928Z,980.31
2017-12-27T06:56:08.916Z,980.26
2017-12-27T06:57:08.905Z,980.30
2017-12-27T06:58:08.892Z,980.31
2017-12-27T06:59:08.884Z,980.27
2017-12-27T07:00:08.866Z,980.20
2017-12-27T07:01:08.853Z,980.22
2017-12-27T07:02:08.844Z,980.26
2017-12-27T07:03:08.833Z,980.24
2017-12-27T07:04:08.822Z,980.26
2017-12-27T07:05:08.807Z,980.21
2017-12-27T07:06:08.797Z,980.17
2017-12-27T07:07:08.780Z,980.15
2017-12-27T07:08:08.769Z,980.24
2017-12-27T07:09:08.757Z,980.23
2017-12-27T07:10:08.745Z,980.19
2017-12-27T07:11:08.727Z,980.28
2017-12-27T07:12:08.715Z,980.28
2017-12-27T07:13:08.702Z,980.16
2017-12-27T07:14:08.690Z,980.22
2017-12-27T07:15:08.676Z,980.22
2017-12-27T07:16:08.664Z,980.24
2017-12-27T07:17:08.652Z,980.15
2017-12-27T07:18:08.640Z,980.12
2017-12-27T07:19:08.630Z,980.11
2017-12-27T07:20:08.617Z,980.22
2017-12-27T07:21:08.606Z,980.23
2017-12-27T07:22:08.609Z,980.17
2017-12-27T07:23:08.580Z,980.13
2017-12-27T07:24:08.567Z,980.14
2017-12-27T07:25:08.555Z,980.19
2017-12-27T07:26:08.542Z,980.21
2017-12-27T07:27:08.524Z,980.26
2017-12-27T07:28:08.521Z,980.23
2017-12-27T07:29:08.499Z,980.23
2017-12-27T07:30:08.487Z,980.21
2017-12-27T07:31:08.473Z,980.17
2017-12-27T07:32:08.461Z,980.17
2017-12-27T07:33:08.448Z,980.21
2017-12-27T07:34:08.437Z,980.24
2017-12-27T07:35:08.426Z,980.18
2017-12-27T07:36:08.415Z,980.19
2017-12-27T07:37:08.402Z,980.17
2017-12-27T07:38:08.390Z,980.20
2017-12-27T07:39:08.376Z,980.18
2017-12-27T07:40:08.364Z,980.20
2017-12-27T07:41:08.350Z,980.12
2017-12-27T07:42:08.339Z,980.19
2017-12-27T07:43:08.320Z,980.12
2017-12-27T07:44:08.308Z,980.20
2017-12-27T07:45:08.295Z,980.21
2017-12-27T07:46:08.283Z,980.26
2017-12-27T07:47:08.274Z,980.19
2017-12-27T07:48:08.261Z,980.21
2017-12-27T07:49:08.249Z,980.25
2017-12-27T07:50:08.236Z,980.20
2017-12-27T07:51:08.218Z,980.27
2017-12-27T07:52:08.205Z,980.25
2017-12-27T07:53:08.192Z,980.27
2017-12-27T07:54:08.179Z,980.22
2017-12-27T07:55:08.166Z,980.20
2017-12-27T07:56:08.155Z,980.21
2017-12-27T07:57:08.140Z,980.19
2017-12-27T07:58:08.127Z,980.14
2017-12-27T07:59:08.122Z,980.21
2017-12-27T08:00:08.107Z,980.26
2017-12-27T08:01:08.093Z,980.16
2017-12-27T08:02:08.080Z,980.20
2017-12-27T08:03:08.068Z,980.15
2017-12-27T08:04:08.053Z,980.16
2017-12-27T08:05:08.041Z,980.19
2017-12-27T08:06:08.028Z,980.18
2017-12-27T08:07:08.010Z,980.11
2017-12-27T08:08:07.998Z,980.11
2017-12-27T08:09:07.990Z,980.17
2017-12-27T08:10:07.972Z,980.05
2017-12-27T08:11:07.958Z,980.04
2017-12-27T08:12:07.945Z,980.07
2017-12-27T08:13:07.933Z,980.15
2017-12-27T08:14:07.920Z,980.11
2017-12-27T08:15:07.910Z,980.06
2017-12-27T08:16:07.897Z,980.07
2017-12-27T08:17:07.884Z,979.93
2017-12-27T08:18:07.872Z,980.05
2017-12-27T08:19:07.859Z,979.98
2017-12-27T08:20:07.845Z,979.97
2017-12-27T08:21:07.832Z,979.96
2017-12-27T08:22:07.823Z,980.03
2017-12-27T08:23:07.801Z,980.02
2017-12-27T08:24:07.788Z,979.97
2017-12-27T08:25:07.776Z,979.91
2017-12-27T08:26:07.763Z,979.93
2017-12-27T08:27:07.749Z,980.00
2017-12-27T08:28:07.736Z,979.88
2017-12-27T08:29:07.724Z,979.97
2017-12-27T08:30:07.712Z,979.93
2017-12-27T08:31:07.700Z,979.95
2017-12-27T08:32:07.728Z,979.96
2017-12-27T08:33:07.675Z,979.91
2017-12-27T08:34:07.661Z,979.87
2017-12-27T08:35:07.648Z,979.87
2017-12-27T08:36:07.635Z,979.82
2017-12-27T08:37:07.623Z,979.90
2017-12-27T08:38:07.609Z,979.88
2017-12-27T08:39:07.591Z,979.91
2017-12-27T08:40:07.582Z,979.88
2017-12-27T08:41:07.566Z,979.85
2017-12-27T08:42:07.552Z,980.05
2017-12-27T08:43:07.539Z,979.95
2017-12-27T08:44:07.526Z,979.95
2017-12-27T08:45:07.513Z,979.96
2017-12-27T08:46:07.506Z,980.05
2017-12-27T08:47:07.491Z,980.00
2017-12-27T08:48:07.477Z,980.05
2017-12-27T08:49:07.465Z,980.05
2017-12-27T08:50:07.452Z,980.06
2017-12-27T08:51:07.434Z,979.92
2017-12-27T08:52:07.420Z,979.92
2017-12-27T08:53:07.408Z,979.99
2017-12-27T08:54:07.397Z,979.93
2017-12-27T08:55:07.386Z,979.93
2017-12-27T08:56:07.373Z,979.95
2017-12-27T08:57:07.360Z,979.92
2017-12-27T08:58:07.347Z,980.01
2017-12-27T08:59:07.333Z,979.87
2017-12-27T09:00:07.320Z,979.96
2017-12-27T09:01:07.308Z,979.95
2017-12-27T09:02:07.295Z,979.91
2017-12-27T09:03:07.276Z,979.91
2017-12-27T09:04:07.264Z,979.90
2017-12-27T09:05:07.250Z,979.94
2017-12-27T09:06:07.238Z,979.88
2017-12-27T09:07:07.224Z,979.86
2017-12-27T09:08:07.212Z,979.84
2017-12-27T09:09:07.199Z,979.90
2017-12-27T09:10:07.186Z,979.80
2017-12-27T09:11:07.176Z,979.87
2017-12-27T09:12:07.163Z,979.91
2017-12-27T09:13:07.155Z,979.91
2017-12-27T09:14:07.139Z,979.91
2017-12-27T09:15:07.123Z,979.93
2017-12-27T09:16:07.111Z,979.90
2017-12-27T09:17:07.146Z,979.91
2017-12-27T09:18:07.086Z,979.92
2017-12-27T09:19:07.068Z,980.02
2017-12-27T09:20:07.057Z,979.85
2017-12-27T09:21:07.043Z,979.81
2017-12-27T09:22:07.030Z,979.90
2017-12-27T09:23:07.016Z,979.85
2017-12-27T09:24:07.003Z,979.89
2017-12-27T09:25:06.991Z,979.88
2017-12-27T09:26:06.978Z,979.89
2017-12-27T09:27:06.968Z,979.96
2017-12-27T09:28:06.955Z,979.95
2017-12-27T09:29:06.942Z,979.98
2017-12-27T09:30:06.930Z,979.95
2017-12-27T09:31:06.917Z,979.92
2017-12-27T09:32:06.903Z,979.95
2017-12-27T09:33:06.897Z,979.97
2017-12-27T09:34:06.878Z,979.95
2017-12-27T09:35:06.862Z,980.01
2017-12-27T09:36:06.848Z,980.04
2017-12-27T09:37:06.836Z,980.03
2017-12-27T09:38:06.824Z,980.13
2017-12-27T09:39:06.809Z,980.12
2017-12-27T09:40:06.798Z,980.14
2017-12-27T09:41:06.785Z,980.07
2017-12-27T09:42:06.771Z,980.08
2017-12-27T09:43:06.762Z,980.09
2017-12-27T09:44:06.793Z,980.10
2017-12-27T09:45:06.738Z,980.18
2017-12-27T09:46:06.725Z,980.04
2017-12-27T09:47:06.711Z,980.01
2017-12-27T09:48:06.699Z,980.17
2017-12-27T09:49:06.686Z,980.13
2017-12-27T09:50:06.674Z,980.16
2017-12-27T09:51:06.658Z,980.12
2017-12-27T09:52:06.644Z,980.10
2017-12-27T09:53:06.630Z,980.18
2017-12-27T09:54:06.617Z,980.10
2017-12-27T09:55:06.609Z,980.09
2017-12-27T09:56:06.595Z,980.06
2017-12-27T09:57:06.582Z,980.12
2017-12-27T09:58:06.571Z,980.14
2017-12-27T09:59:06.554Z,980.09
2017-12-27T10:00:06.540Z,980.06
2017-12-27T10:01:06.526Z,980.11
2017-12-27T10:02:06.514Z,980.13
2017-12-27T10:03:06.501Z,980.18
2017-12-27T10:04:06.488Z,980.14
2017-12-27T10:05:06.476Z,980.10
2017-12-27T10:06:06.461Z,980.05
2017-12-27T10:07:06.453Z,980.06
2017-12-27T10:08:06.440Z,980.08
2017-12-27T10:09:06.428Z,980.08
2017-12-27T10:10:06.414Z,980.08
2017-12-27T10:11:06.400Z,980.07
2017-12-27T10:12:06.387Z,979.99
2017-12-27T10:13:06.376Z,980.01
2017-12-27T10:14:06.364Z,980.04
2017-12-27T10:15:06.345Z,980.08
2017-12-27T10:16:06.331Z,979.98
2017-12-27T10:17:06.318Z,980.06
2017-12-27T10:18:06.306Z,979.99
2017-12-27T10:19:06.293Z,980.06
2017-12-27T10:20:06.279Z,980.04
2017-12-27T10:21:06.266Z,979.98
2017-12-27T10:22:06.253Z,979.94
2017-12-27T10:23:06.244Z,979.97
2017-12-27T10:24:06.234Z,979.99
2017-12-27T10:25:06.284Z,979.99
2017-12-27T10:26:06.206Z,979.91
2017-12-27T10:27:06.192Z,979.91
2017-12-27T10:28:06.178Z,979.93
2017-12-27T10:29:06.166Z,979.87
2017-12-27T10:30:06.152Z,979.94
2017-12-27T10:31:06.134Z,979.89
2017-12-27T10:32:06.122Z,979.87
2017-12-27T10:33:06.159Z,979.86
2017-12-27T10:34:06.097Z,979.86
2017-12-27T10:35:06.082Z,979.89
2017-12-27T10:36:06.070Z,979.87
2017-12-27T10:37:06.057Z,980.03
2017-12-27T10:38:06.046Z,979.93
2017-12-27T10:39:06.034Z,979.88
2017-12-27T10:40:06.024Z,979.87
2017-12-27T10:41:06.008Z,979.88
2017-12-27T10:42:05.996Z,979.81
2017-12-27T10:43:05.982Z,979.84
2017-12-27T10:44:05.969Z,979.92
2017-12-27T10:45:05.962Z,979.82
2017-12-27T10:46:05.942Z,979.81
2017-12-27T10:47:05.925Z,979.87
2017-12-27T10:48:05.913Z,979.84
2017-12-27T10:49:05.900Z,979.78
2017-12-27T10:50:05.888Z,979.75
2017-12-27T10:51:05.874Z,979.73
2017-12-27T10:52:05.864Z,979.74
2017-12-27T10:53:05.847Z,979.74
2017-12-27T10:54:05.834Z,979.73
2017-12-27T10:55:05.826Z,979.74
2017-12-27T10:56:05.813Z,979.70
2017-12-27T10:57:05.800Z,979.77
2017-12-27T10:58:05.789Z,979.76
2017-12-27T10:59:05.774Z,979.77
2017-12-27T11:00:05.761Z,979.73
2017-12-27T11:01:05.749Z,979.70
2017-12-27T11:10:00.357Z,979.57
2017-12-27T11:11:00.339Z,979.60
2017-12-27T11:12:00.323Z,979.60
2017-12-27T11:13:00.305Z,979.67
2017-12-27T11:14:00.289Z,979.63
2017-12-27T11:15:00.277Z,979.66
2017-12-27T11:16:00.264Z,979.65
2017-12-27T11:17:00.252Z,979.68
2017-12-27T11:18:00.240Z,979.60
2017-12-27T11:19:00.226Z,979.64
2017-12-27T11:20:00.215Z,979.60
2017-12-27T11:21:00.209Z,979.61
2017-12-27T11:22:00.198Z,979.76
2017-12-27T11:23:00.187Z,979.61
2017-12-27T11:24:00.175Z,979.55
2017-12-27T11:25:00.167Z,979.60
2017-12-27T11:26:00.155Z,979.54
2017-12-27T11:27:00.147Z,979.59
2017-12-27T11:28:00.134Z,979.63
2017-12-27T11:29:00.121Z,979.67
2017-12-27T11:30:00.113Z,979.63
2017-12-27T11:31:00.102Z,979.64
2017-12-27T11:32:00.092Z,979.65
2017-12-27T11:33:00.082Z,979.75
2017-12-27T11:34:00.073Z,979.65
2017-12-27T11:35:00.064Z,979.60
2017-12-27T11:36:00.055Z,979.59
2017-12-27T11:37:00.049Z,979.59
2017-12-27T11:38:00.040Z,979.60
2017-12-27T11:39:00.031Z,979.62
2017-12-27T11:40:00.025Z,979.60
2017-12-27T11:41:00.014Z,979.56
2017-12-27T11:42:00.005Z,979.56
2017-12-27T11:42:59.994Z,979.54
2017-12-27T11:43:59.985Z,979.55
2017-12-27T11:44:59.972Z,979.57
2017-12-27T11:45:59.963Z,979.52
2017-12-27T11:46:59.953Z,979.51
2017-12-27T11:47:59.945Z,979.60
2017-12-27T11:48:59.936Z,979.60
2017-12-27T11:49:59.928Z,979.64
2017-12-27T11:50:59.919Z,979.58
2017-12-27T11:51:59.910Z,979.73
2017-12-27T11:52:59.905Z,979.58
2017-12-27T11:53:59.898Z,979.55
2017-12-27T11:54:59.888Z,979.53
2017-12-27T11:55:59.881Z,979.62
2017-12-27T11:56:59.872Z,979.56
2017-12-27T11:57:59.864Z,979.53
2017-12-27T11:58:59.854Z,979.49
2017-12-27T11:59:59.847Z,979.52
2017-12-27T12:00:59.835Z,979.52
2017-12-27T12:01:59.826Z,979.47
2017-12-27T12:02:59.816Z,979.49
2017-12-27T12:03:59.808Z,979.49
2017-12-27T12:04:59.800Z,979.49
2017-12-27T12:05:59.793Z,979.46
2017-12-27T12:06:59.782Z,979.45
2017-12-27T12:07:59.774Z,979.49
2017-12-27T12:08:59.771Z,979.46
2017-12-27T12:09:59.764Z,979.44
2017-12-27T12:10:59.753Z,979.45
2017-12-27T12:11:59.753Z,979.43
2017-12-27T12:12:59.734Z,979.34
2017-12-27T12:13:59.724Z,979.34
2017-12-27T12:14:59.716Z,979.33
2017-12-27T12:15:59.708Z,979.36
2017-12-27T12:16:59.706Z,979.37
2017-12-27T12:17:59.695Z,979.36
2017-12-27T12:18:59.686Z,979.30
2017-12-27T12:19:59.678Z,979.28
2017-12-27T12:20:59.670Z,979.23
2017-12-27T12:21:59.663Z,979.21
2017-12-27T12:22:59.652Z,979.20
2017-12-27T12:23:59.644Z,979.23
2017-12-27T12:24:59.632Z,979.25
2017-12-27T12:25:59.624Z,979.25
2017-12-27T12:26:59.614Z,979.29
2017-12-27T12:27:59.606Z,979.30
2017-12-27T12:28:59.599Z,979.31
2017-12-27T12:29:59.591Z,979.29
2017-12-27T12:30:59.581Z,979.24
2017-12-27T12:31:59.573Z,979.25
2017-12-27T12:32:59.570Z,979.22
2017-12-27T12:33:59.562Z,979.17
2017-12-27T12:34:59.554Z,979.18
2017-12-27T12:35:59.548Z,979.21